»·PEaware :: FDX3650 KSEA-KGEG

FDX3650 :: KSEA-KGEG

FLIGHT INFORMATION

Flight Status: Arrived
Operator:
Federal Express
More flights by this operator :: More flights under this callsign
Pilot: David C. (16084)
Aircraft: AIRBUS A300B4-600
(A306)
More flights by this aircraft type
Origin: KSEA Seattle-Tacoma Intl
United States
Destination: KGEG Spokane Intl
United States
More flights between these airports :: More routes between these airports
Route: SEA7 ZADON ZELAK ZIRAN ZOOMR ZOOMR1
File this flight plan on PilotEdge
Remarks:
Altitude:
(Current/Filed)
27,000ft
Speed:
(Current/Filed)
476kts
Departed: 19-Jan-21 05:35 PM
Arrived: 19-Jan-21 06:20 PM
Distance/Time
Traveled:
194nm/0:45
Distance/Time
To Go:
Arrived

Flight Plot

Page will automatically refresh every two minutes.

Flight plan parsing failed; only flown route is shown


Map Options




Map Legend


Flown Route
Filed Route
Departure Airport
Arrival Airport
Navaid (VOR, NDB)
Fix

Horizontal Profiles

Position Reports

Time Latitude Longitude Heading Altitude Ground
Speed
19-Jan-21 17:01 47.460997 -122.302707 180 482ft 0kts
19-Jan-21 17:02 47.460997 -122.302707 180 482ft 0kts
19-Jan-21 17:03 47.460997 -122.302707 180 482ft 0kts
19-Jan-21 17:04 47.460997 -122.302707 180 482ft 0kts
19-Jan-21 17:05 47.460997 -122.302707 180 482ft 0kts
19-Jan-21 17:06 47.460997 -122.302707 180 482ft 0kts
19-Jan-21 17:07 47.460997 -122.302707 180 482ft 0kts
19-Jan-21 17:08 47.460997 -122.302707 180 482ft 0kts
19-Jan-21 17:09 47.460997 -122.302707 180 482ft 0kts
19-Jan-21 17:10 47.460997 -122.302707 180 482ft 0kts
19-Jan-21 17:11 47.460997 -122.302707 180 482ft 0kts
19-Jan-21 17:12 47.460997 -122.302707 180 482ft 0kts
19-Jan-21 17:13 47.460997 -122.302707 180 482ft 0kts
19-Jan-21 17:14 47.460997 -122.302707 180 482ft 0kts
19-Jan-21 17:15 47.460997 -122.302707 180 482ft 0kts
19-Jan-21 17:16 47.460997 -122.302707 180 482ft 0kts
19-Jan-21 17:17 47.460997 -122.302707 180 482ft 0kts
19-Jan-21 17:18 47.460997 -122.302707 180 482ft 0kts
19-Jan-21 17:19 47.460997 -122.302707 180 482ft 0kts
19-Jan-21 17:20 47.460997 -122.302707 180 482ft 0kts
19-Jan-21 17:21 47.460997 -122.302707 180 482ft 0kts
19-Jan-21 17:22 47.460997 -122.302707 180 482ft 0kts
19-Jan-21 17:23 47.460997 -122.302707 180 482ft 0kts
19-Jan-21 17:24 47.461187 -122.302698 180 482ft 2kts
19-Jan-21 17:25 47.461773 -122.302550 201 482ft 2kts
19-Jan-21 17:26 47.461870 -122.302492 204 482ft 0kts
19-Jan-21 17:27 47.461870 -122.302492 204 482ft 0kts
19-Jan-21 17:28 47.461870 -122.302492 204 482ft 0kts
19-Jan-21 17:29 47.461783 -122.303211 273 482ft 0kts
19-Jan-21 17:30 47.461810 -122.303894 273 482ft 7kts
19-Jan-21 17:31 47.463433 -122.306059 305 482ft 0kts
19-Jan-21 17:32 47.463433 -122.306059 305 482ft 0kts
19-Jan-21 17:33 47.462212 -122.307747 180 482ft 17kts
19-Jan-21 17:34 47.431345 -122.308114 181 782ft 207kts
19-Jan-21 17:35 47.368515 -122.309113 181 2949ft 241kts
19-Jan-21 17:36 47.300003 -122.309671 181 4954ft 253kts
19-Jan-21 17:37 47.228538 -122.309756 183 7242ft 261kts
19-Jan-21 17:38 47.155806 -122.299010 147 10253ft 281kts
19-Jan-21 17:39 47.148824 -122.187075 56 12184ft 328kts
19-Jan-21 17:40 47.215334 -122.082262 32 13961ft 379kts
19-Jan-21 17:41 47.306613 -121.996281 28 16466ft 403kts
19-Jan-21 17:42 47.401377 -121.901245 28 18988ft 421kts
19-Jan-21 17:43 47.499654 -121.802008 28 21505ft 437kts
19-Jan-21 17:44 47.595017 -121.688308 56 23747ft 466kts
19-Jan-21 17:45 47.587708 -121.496634 103 25392ft 487kts
19-Jan-21 17:46 47.558720 -121.306608 91 26826ft 492kts
19-Jan-21 17:47 47.554197 -121.098932 90 27290ft 515kts
19-Jan-21 17:48 47.550331 -120.884975 90 27298ft 523kts
19-Jan-21 17:49 47.546183 -120.669459 90 27327ft 525kts
19-Jan-21 17:50 47.541614 -120.453262 90 27351ft 524kts
19-Jan-21 17:51 47.532403 -120.244963 94 27340ft 524kts
19-Jan-21 17:52 47.522093 -120.029700 93 27342ft 524kts
19-Jan-21 17:53 47.511765 -119.814404 93 27347ft 525kts
19-Jan-21 17:54 47.501129 -119.599568 93 27352ft 525kts
19-Jan-21 17:55 47.489991 -119.383252 93 27357ft 526kts
19-Jan-21 17:56 47.478791 -119.172393 94 26974ft 515kts
19-Jan-21 17:57 47.467212 -118.964178 94 25524ft 501kts
19-Jan-21 17:58 47.455783 -118.766494 93 24346ft 470kts
19-Jan-21 17:59 47.444245 -118.571433 93 24345ft 478kts
19-Jan-21 18:00 47.431667 -118.376294 99 24220ft 475kts
19-Jan-21 18:01 47.446169 -118.195516 68 21717ft 458kts
19-Jan-21 18:02 47.484416 -118.016388 71 18686ft 442kts
19-Jan-21 18:03 47.534081 -117.864928 55 15680ft 396kts
19-Jan-21 18:04 47.589102 -117.728004 62 12670ft 380kts
19-Jan-21 18:05 47.656138 -117.626865 33 10649ft 317kts
19-Jan-21 18:06 47.723312 -117.552993 34 8818ft 290kts
19-Jan-21 18:07 47.784069 -117.485285 33 7020ft 261kts
19-Jan-21 18:09 47.836396 -117.425916 33 7015ft 208kts
19-Jan-21 18:10 47.882016 -117.372860 33 7002ft 210kts
19-Jan-21 18:11 47.926922 -117.318251 53 6974ft 216kts
19-Jan-21 18:12 47.903575 -117.244528 166 6979ft 218kts
19-Jan-21 18:13 47.846423 -117.266819 203 6292ft 207kts
19-Jan-21 18:14 47.796020 -117.295131 203 5505ft 186kts
19-Jan-21 18:15 47.753029 -117.333994 229 5497ft 182kts
19-Jan-21 18:16 47.717682 -117.387614 228 4818ft 176kts
19-Jan-21 18:17 47.683329 -117.439561 226 3874ft 175kts
19-Jan-21 18:18 47.650956 -117.488524 225 2976ft 162kts
19-Jan-21 18:19 47.621600 -117.532697 225 2396ft 106kts
19-Jan-21 18:20 47.614007 -117.546110 315 2396ft 14kts
19-Jan-21 18:21 47.617139 -117.543484 46 2396ft 21kts
19-Jan-21 18:21 47.621900 -117.536400 45 2396ft 36kts
19-Jan-21 18:23 47.627861 -117.528552 27 2396ft 8kts
19-Jan-21 18:24 47.628301 -117.528628 344 2396ft 0kts
19-Jan-21 18:24 47.628301 -117.528628 344 2396ft 0kts

Navigation Log

Ident Type
Flight plan parsing failed, navigation log unavailable